METAR AND TAF INFORMATION
METAR FOR UNNT
ADDS - METARS form results

(0925 UTC 22 July 2019)
Data provider http://aviationweather.gov/metar/data/
 
METAR text: UNNT 220900Z 36003MPS 5000 BR OVC026 19/13 Q1004 R25/090070 R34/090070 NOSIG RMK QFE743/0991
Conditions at: UNNT (TOLMACHEVO , RU) observed 0900 UTC 22 July 2019
Temperature: 19.0°C (66°F)
Dewpoint: 13.0°C (55°F) [RH = 68%]
Pressure (altimeter): 29.65 inches Hg (1004.0 mb)
Winds: from the N (360 degrees) at 7 MPH (6 knots; 3.1 m/s)
Visibility: 3 miles ( 5 km)
Ceiling: 2600 feet AGL
Clouds: overcast cloud deck at 2600 feet AGL
Weather: BR  (mist)

METAR text: UNNT 220830Z 35002MPS 5000 BR OVC026 19/13 Q1004 R25/090070 R34/090070 NOSIG RMK QFE743/0991
Conditions at: UNNT (TOLMACHEVO , RU) observed 0830 UTC 22 July 2019
Temperature: 19.0°C (66°F)
Dewpoint: 13.0°C (55°F) [RH = 68%]
Pressure (altimeter): 29.65 inches Hg (1004.0 mb)
Winds: from the N (350 degrees) at 5 MPH (4 knots; 2.1 m/s)
Visibility: 3 miles ( 5 km)
Ceiling: 2600 feet AGL
Clouds: overcast cloud deck at 2600 feet AGL
Weather: BR  (mist)

Forecast for: UNNT (TOLMACHEVO , RU)
Text: TAF UNNT 220800Z 2209/2309 01003G08MPS 3100 FU BR BKN016CB
Forecast period: 0900 UTC 22 July 2019 to 0900 UTC 23 July 2019
Forecast type: FROM: standard forecast or significant change
Winds: from the N (10 degrees) at 7 MPH (6 knots; 3.1 m/s)
gusting to 18 MPH (16 knots; 8.2 m/s)
Visibility: 1.93 miles (3.11 km)
Ceiling: 1600 feet AGL
Clouds: broken clouds at 1600 feet AGL
Weather: FU BR  (smoke, mist)
Text: TEMPO 2217/2303 0800 FG BKN002 BKN011CB
Forecast period: 1700 UTC 22 July 2019 to 0300 UTC 23 July 2019
Forecast type: TEMPORARY: The following changes expected for less than half the time period
Visibility: 0.50 miles (0.80 km)
Ceiling: 200 feet AGL
Clouds: broken clouds at 200 feet AGL
broken clouds at 1100 feet AGL
Weather: FG  (fog)

 AIRPORT MAP

 RUNWAY INFORMATION

 AIRPORT FREQUENCIES
Type APP Name NOVOSIBIRS Frequency 127.5 MHZ
Type ATIS Name NOVOSIBIRS Frequency 127.4 MHZ
Type GND Name NOVOSIBIRS Frequency 121.7 MHZ
Type PMSV Name NOVOSIBIRS Frequency 128.3 MHZ
Type RDR Name NOVOSIBIRS Frequency 122 MHZ
Type TWR Name NOVOSIBIRS Frequency 118.5 MHZ

 AIRPORT NEAR NAVIGATION AIDS
Type NDB Name Tolmachevo Frequency 310 KHZ
Type VOR-DME Name Novosibirsk Frequency 113300 KHZ
Type NDB Name Tolmachevo Frequency 310 KHZ



2018 Air Astana Virtual Airline